createdAt,value
2023-02-02T00:01:38.805Z,99179.19
2023-02-02T00:04:06.085Z,99169.81
2023-02-02T00:06:33.653Z,99170.69
2023-02-02T00:09:02.499Z,99168.94
2023-02-02T00:11:29.521Z,99166.41
2023-02-02T00:13:56.751Z,99157.91
2023-02-02T00:16:35.662Z,99161.28
2023-02-02T00:19:15.377Z,99158.72
2023-02-02T00:21:43.460Z,99168.13
2023-02-02T00:24:13.680Z,99170.69
2023-02-02T00:26:41.530Z,99163.00
2023-02-02T00:29:14.106Z,99167.25
2023-02-02T00:31:41.171Z,99139.97
2023-02-02T00:34:10.120Z,99164.69
2023-02-02T00:36:37.209Z,99168.13
2023-02-02T00:39:04.357Z,99168.94
2023-02-02T00:41:31.354Z,99161.31
2023-02-02T00:44:16.810Z,99166.41
2023-02-02T00:46:43.869Z,99162.97
2023-02-02T00:49:11.216Z,99168.09
2023-02-02T00:51:38.297Z,99160.41
2023-02-02T00:54:05.664Z,99160.41
2023-02-02T00:56:32.967Z,99150.19
2023-02-02T00:59:00.167Z,99160.41
2023-02-02T01:01:27.683Z,99139.97
2023-02-02T01:03:55.660Z,99140.84
2023-02-02T01:06:23.284Z,99145.09
2023-02-02T01:08:50.345Z,99139.13
2023-02-02T01:11:17.684Z,99124.66
2023-02-02T01:13:45.090Z,99130.59
2023-02-02T01:16:12.841Z,99129.75
2023-02-02T01:18:40.407Z,99122.09
2023-02-02T01:21:11.003Z,99117.00
2023-02-02T01:23:39.377Z,99111.88
2023-02-02T01:26:11.187Z,99106.75
2023-02-02T01:28:38.806Z,99108.47
2023-02-02T01:31:17.355Z,99109.31
2023-02-02T01:33:46.893Z,99099.09
2023-02-02T01:36:16.923Z,99096.56
2023-02-02T01:38:44.839Z,99101.66
2023-02-02T01:41:20.995Z,99088.03
2023-02-02T01:43:48.083Z,99090.59
2023-02-02T01:46:20.382Z,99078.66
2023-02-02T01:49:09.376Z,99065.00
2023-02-02T01:51:47.223Z,99075.25
2023-02-02T01:54:28.240Z,99076.97
2023-02-02T01:57:00.012Z,99068.44
2023-02-02T01:59:28.820Z,99048.84
2023-02-02T02:01:56.570Z,99065.03
2023-02-02T02:04:26.585Z,99053.13
2023-02-02T02:06:53.942Z,99057.34
2023-02-02T02:09:21.501Z,99065.91
2023-02-02T02:11:48.724Z,99049.72
2023-02-02T02:14:35.516Z,99048.00
2023-02-02T02:17:22.514Z,99039.50
2023-02-02T02:20:17.114Z,99039.50
2023-02-02T02:23:40.982Z,99028.41
2023-02-02T02:26:32.628Z,99029.28
2023-02-02T02:29:18.544Z,99015.63
2023-02-02T02:32:07.049Z,99019.06
2023-02-02T02:34:58.639Z,99018.19
2023-02-02T02:37:39.365Z,99012.22
2023-02-02T02:40:11.506Z,99006.25
2023-02-02T02:42:44.699Z,98990.09
2023-02-02T02:45:14.148Z,98993.47
2023-02-02T02:47:42.714Z,98996.06
2023-02-02T02:50:10.550Z,98989.25
2023-02-02T02:52:38.519Z,98978.13
2023-02-02T02:55:08.329Z,98976.44
2023-02-02T02:57:47.553Z,98967.94
2023-02-02T03:00:35.566Z,98969.63
2023-02-02T03:03:14.393Z,98965.38
2023-02-02T03:06:04.164Z,98963.66
2023-02-02T03:08:48.405Z,98957.72
2023-02-02T03:11:16.623Z,98947.50
2023-02-02T03:13:44.815Z,98952.59
2023-02-02T03:16:12.438Z,98947.50
2023-02-02T03:18:39.853Z,98937.28
2023-02-02T03:21:07.382Z,98927.91
2023-02-02T03:23:35.015Z,98899.00
2023-02-02T03:26:02.232Z,98915.16
2023-02-02T03:28:30.462Z,98918.56
2023-02-02T03:31:00.397Z,98906.63
2023-02-02T03:33:28.372Z,98904.09
2023-02-02T03:35:55.477Z,98904.09
2023-02-02T03:38:22.594Z,98907.50
2023-02-02T03:40:51.391Z,98889.63
2023-02-02T03:43:22.849Z,98899.00
2023-02-02T03:45:58.644Z,98891.34
2023-02-02T03:48:26.638Z,98891.31
2023-02-02T03:50:54.439Z,98896.44
2023-02-02T03:53:22.026Z,98892.19
2023-02-02T03:55:49.107Z,98887.91
2023-02-02T03:58:16.206Z,98882.81
2023-02-02T04:00:43.705Z,98881.94
2023-02-02T04:03:10.836Z,98893.88
2023-02-02T04:05:37.986Z,98894.72
2023-02-02T04:08:05.540Z,98889.56
2023-02-02T04:10:32.616Z,98887.88
2023-02-02T04:12:59.683Z,98876.81
2023-02-02T04:15:27.020Z,98875.94
2023-02-02T04:17:54.343Z,98878.47
2023-02-02T04:20:21.395Z,98874.22
2023-02-02T04:22:48.470Z,98858.91
2023-02-02T04:25:15.549Z,98870.84
2023-02-02T04:27:42.638Z,98872.53
2023-02-02T04:30:10.615Z,98865.75
2023-02-02T04:32:37.763Z,98867.44
2023-02-02T04:35:05.083Z,98864.03
2023-02-02T04:37:33.023Z,98862.34
2023-02-02T04:40:00.143Z,98867.44
2023-02-02T04:42:27.285Z,98865.75
2023-02-02T04:44:54.385Z,98860.66
2023-02-02T04:47:21.427Z,98862.38
2023-02-02T04:49:48.494Z,98869.16
2023-02-02T04:52:15.548Z,98861.50
2023-02-02T04:54:42.601Z,98864.91
2023-02-02T04:57:09.737Z,98859.00
2023-02-02T04:59:36.792Z,98864.09
2023-02-02T05:02:03.959Z,98870.88
2023-02-02T05:04:31.117Z,98864.09
2023-02-02T05:06:58.163Z,98866.63
2023-02-02T05:09:25.543Z,98870.91
2023-02-02T05:11:52.653Z,98875.16
2023-02-02T05:14:20.620Z,98876.00
2023-02-02T05:16:47.915Z,98882.81
2023-02-02T05:19:17.031Z,98886.22
2023-02-02T05:21:45.544Z,98896.41
2023-02-02T05:24:12.971Z,98905.78
2023-02-02T05:26:40.212Z,98898.13
2023-02-02T05:29:09.460Z,98914.31
2023-02-02T05:31:36.702Z,98913.44
2023-02-02T05:34:04.171Z,98910.06
2023-02-02T05:36:31.236Z,98927.06
2023-02-02T05:38:58.373Z,98933.03
2023-02-02T05:41:25.623Z,98903.22
2023-02-02T05:43:52.753Z,98943.25
2023-02-02T05:46:20.031Z,98944.09
2023-02-02T05:48:47.154Z,98950.06
2023-02-02T05:51:39.222Z,98949.22
2023-02-02T05:54:06.316Z,98978.16
2023-02-02T05:56:33.417Z,98979.00
2023-02-02T05:59:00.476Z,98987.53
2023-02-02T06:01:27.660Z,99003.72
2023-02-02T06:03:54.735Z,99010.50
2023-02-02T06:06:21.834Z,99020.72
2023-02-02T06:08:48.893Z,99008.78
2023-02-02T06:11:18.003Z,99037.75
2023-02-02T06:13:46.213Z,99024.97
2023-02-02T06:16:13.532Z,99039.44
2023-02-02T06:18:40.723Z,99051.38
2023-02-02T06:21:08.011Z,99059.88
2023-02-02T06:23:35.298Z,99063.28
2023-02-02T06:26:03.820Z,99075.19
2023-02-02T06:28:32.032Z,99090.50
2023-02-02T06:31:06.882Z,99093.06
2023-02-02T06:33:34.517Z,99092.19
2023-02-02T06:36:03.423Z,99104.09
2023-02-02T06:38:31.887Z,99116.03
2023-02-02T06:41:02.834Z,99122.84
2023-02-02T06:43:30.589Z,99123.69
2023-02-02T06:45:58.595Z,99136.47
2023-02-02T06:48:26.744Z,99155.16
2023-02-02T06:50:54.369Z,99153.47
2023-02-02T06:53:23.384Z,99156.88
2023-02-02T06:55:58.564Z,99167.09
2023-02-02T06:58:25.623Z,99173.91
2023-02-02T07:00:52.930Z,99184.13
2023-02-02T07:03:24.435Z,99182.41
2023-02-02T07:05:51.517Z,99197.75
2023-02-02T07:08:18.645Z,99200.31
2023-02-02T07:11:13.599Z,99214.78
2023-02-02T07:13:33.001Z,99214.78
2023-02-02T07:16:00.592Z,99225.00
2023-02-02T07:18:27.755Z,99233.53
2023-02-02T07:20:54.802Z,99247.19
2023-02-02T07:23:21.836Z,99256.56
2023-02-02T07:25:48.908Z,99255.72
2023-02-02T07:28:15.971Z,99260.81
2023-02-02T07:30:43.181Z,99260.81
2023-02-02T07:33:10.245Z,99260.81
2023-02-02T07:35:37.395Z,99274.47
2023-02-02T07:38:04.561Z,99280.41
2023-02-02T07:40:31.601Z,99273.63
2023-02-02T07:43:01.189Z,99281.28
2023-02-02T07:45:28.638Z,99286.41
2023-02-02T07:47:57.454Z,99283.84
2023-02-02T07:50:25.692Z,99293.25
2023-02-02T07:52:53.335Z,99296.63
2023-02-02T07:55:20.979Z,99304.31
2023-02-02T07:57:48.107Z,99305.19
2023-02-02T08:00:15.455Z,99307.75
2023-02-02T08:02:42.642Z,99317.16
2023-02-02T08:05:10.191Z,99329.06
2023-02-02T08:07:37.253Z,99323.97
2023-02-02T08:10:04.634Z,99338.47
2023-02-02T08:12:31.812Z,99326.53
2023-02-02T08:14:59.417Z,99347.81
2023-02-02T08:17:26.530Z,99353.78
2023-02-02T08:19:54.417Z,99350.38
2023-02-02T08:22:21.635Z,99354.63
2023-02-02T08:24:48.676Z,99360.59
2023-02-02T08:27:17.212Z,99354.69
2023-02-02T08:29:44.555Z,99379.38
2023-02-02T08:32:11.764Z,99358.88
2023-02-02T08:34:40.411Z,99349.50
2023-02-02T08:37:07.569Z,99381.09
2023-02-02T08:39:34.666Z,99391.34
2023-02-02T08:42:01.706Z,99387.09
2023-02-02T08:45:57.830Z,99391.38
2023-02-02T08:47:15.960Z,99398.22
2023-02-02T08:49:44.069Z,99401.59
2023-02-02T08:52:11.200Z,99416.13
2023-02-02T08:54:38.274Z,99407.63
2023-02-02T08:57:05.319Z,99431.44
2023-02-02T08:59:32.424Z,99445.97
2023-02-02T09:01:59.586Z,99451.09
2023-02-02T09:04:26.668Z,99462.19
2023-02-02T09:06:53.689Z,99468.13
2023-02-02T09:09:20.810Z,99479.25
2023-02-02T09:11:47.865Z,99479.25
2023-02-02T09:14:15.547Z,99482.69
2023-02-02T09:16:43.020Z,99498.03
2023-02-02T09:19:11.387Z,99511.69
2023-02-02T09:21:38.478Z,99508.28
2023-02-02T09:24:11.772Z,99520.25
2023-02-02T09:26:40.614Z,99539.91
2023-02-02T09:29:15.377Z,99528.81
2023-02-02T09:31:42.663Z,99547.56
2023-02-02T09:34:12.339Z,99556.13
2023-02-02T09:36:41.039Z,99556.16
2023-02-02T09:39:08.832Z,99559.53
2023-02-02T09:41:39.082Z,99574.13
2023-02-02T09:44:15.041Z,99582.66
2023-02-02T09:47:03.875Z,99588.63
2023-02-02T09:49:52.606Z,99586.91
2023-02-02T09:52:40.896Z,99597.13
2023-02-02T09:55:30.708Z,99605.66
2023-02-02T09:58:20.837Z,99609.09
2023-02-02T10:01:14.672Z,99619.34
2023-02-02T10:04:13.717Z,99623.63
2023-02-02T10:06:44.448Z,99621.94
2023-02-02T10:09:20.695Z,99643.28
2023-02-02T10:12:04.644Z,99634.78
2023-02-02T10:14:51.983Z,99648.41
2023-02-02T10:17:21.889Z,99639.91
2023-02-02T10:19:53.153Z,99650.97
2023-02-02T10:22:24.064Z,99656.97
2023-02-02T10:24:51.920Z,99653.47
2023-02-02T10:27:41.074Z,99677.41
2023-02-02T10:30:19.871Z,99683.34
2023-02-02T10:33:13.132Z,99679.97
2023-02-02T10:35:46.567Z,99691.09
2023-02-02T10:38:31.248Z,99692.78
2023-02-02T10:41:17.636Z,99697.06
2023-02-02T10:43:57.737Z,99706.50
2023-02-02T10:46:26.417Z,99709.91
2023-02-02T10:49:12.159Z,99711.63
2023-02-02T10:51:41.463Z,99720.19
2023-02-02T10:54:54.930Z,99721.84
2023-02-02T10:57:51.442Z,99721.81
2023-02-02T11:00:28.910Z,99730.25
2023-02-02T11:02:56.535Z,99723.38
2023-02-02T11:05:45.052Z,99735.38
2023-02-02T11:08:21.151Z,99749.06
2023-02-02T11:10:52.564Z,99742.16
2023-02-02T11:13:42.672Z,99753.25
2023-02-02T11:16:15.808Z,99760.91
2023-02-02T11:18:44.461Z,99767.66
2023-02-02T11:21:17.426Z,99763.41
2023-02-02T11:23:54.688Z,99779.56
2023-02-02T11:26:26.705Z,99781.22
2023-02-02T11:28:56.822Z,99785.38
2023-02-02T11:31:36.322Z,99786.22
2023-02-02T11:34:19.476Z,99786.16
2023-02-02T11:37:14.979Z,99803.13
2023-02-02T11:39:43.624Z,99802.19
2023-02-02T11:42:20.335Z,99797.91
2023-02-02T11:44:58.154Z,99811.53
2023-02-02T11:47:31.980Z,99808.09
2023-02-02T11:50:04.839Z,99813.25
2023-02-02T11:52:34.100Z,99813.25
2023-02-02T11:55:09.574Z,99809.84
2023-02-02T11:57:37.244Z,99808.09
2023-02-02T12:00:19.138Z,99818.34
2023-02-02T12:02:49.997Z,99820.03
2023-02-02T12:05:20.110Z,99830.22
2023-02-02T12:07:49.102Z,99825.91
2023-02-02T12:10:28.136Z,99823.25
2023-02-02T12:13:30.744Z,99827.50
2023-02-02T12:16:34.053Z,99841.94
2023-02-02T12:19:22.750Z,99846.16
2023-02-02T12:22:09.906Z,99858.03
2023-02-02T12:24:54.226Z,99845.00
2023-02-02T12:27:56.612Z,99867.25
2023-02-02T12:30:44.618Z,99876.59
2023-02-02T12:33:36.385Z,99891.00
2023-02-02T12:36:18.484Z,99893.47
2023-02-02T12:39:07.863Z,99899.38
2023-02-02T12:41:42.746Z,99909.53
2023-02-02T12:44:30.974Z,99909.38
2023-02-02T12:47:01.828Z,99921.22
2023-02-02T12:49:51.926Z,99923.72
2023-02-02T12:52:44.827Z,99927.84
2023-02-02T12:55:24.654Z,99931.19
2023-02-02T12:58:13.725Z,99936.19
2023-02-02T13:00:58.250Z,99941.22
2023-02-02T13:03:45.455Z,99942.88
2023-02-02T13:06:36.518Z,99951.38
2023-02-02T13:09:20.854Z,99951.44
2023-02-02T13:11:50.124Z,99956.59
2023-02-02T13:14:26.280Z,99954.94
2023-02-02T13:16:57.414Z,99956.72
2023-02-02T13:19:47.106Z,99955.03
2023-02-02T13:22:20.197Z,99967.03
2023-02-02T13:24:49.951Z,99978.97
2023-02-02T13:27:21.519Z,99980.69
2023-02-02T13:30:11.767Z,99991.78
2023-02-02T13:32:40.518Z,99996.06
2023-02-02T13:35:23.300Z,99993.53
2023-02-02T13:38:12.793Z,99995.31
2023-02-02T13:40:44.144Z,100001.38
2023-02-02T13:43:32.213Z,100005.72
2023-02-02T13:46:30.523Z,99999.81
2023-02-02T13:49:13.561Z,100002.31
2023-02-02T13:52:20.218Z,100013.34
2023-02-02T13:55:05.322Z,100030.38
2023-02-02T13:57:32.318Z,100023.59
2023-02-02T14:00:05.241Z,100030.38
2023-02-02T14:02:46.919Z,100044.00
2023-02-02T14:05:35.410Z,100050.81
2023-02-02T14:08:18.729Z,100049.09
2023-02-02T14:10:58.505Z,100061.06
2023-02-02T14:14:02.857Z,100074.75
2023-02-02T14:16:35.717Z,100084.16
2023-02-02T14:19:04.897Z,100083.34
2023-02-02T14:21:31.819Z,100088.53
2023-02-02T14:24:04.278Z,100096.34
2023-02-02T14:26:42.533Z,100102.34
2023-02-02T14:29:35.096Z,100114.28
2023-02-02T14:32:28.006Z,100126.94
2023-02-02T14:34:59.524Z,100141.31
2023-02-02T14:37:26.512Z,100137.06
2023-02-02T14:40:12.671Z,100141.31
2023-02-02T14:43:20.097Z,100154.94
2023-02-02T14:46:06.650Z,100166.72
2023-02-02T14:48:34.929Z,100178.59
2023-02-02T14:51:05.915Z,100181.91
2023-02-02T14:53:39.609Z,100180.00
2023-02-02T14:56:13.411Z,100199.59
2023-02-02T14:58:53.137Z,100198.69
2023-02-02T15:01:26.352Z,100198.66
2023-02-02T15:04:21.653Z,100213.88
2023-02-02T15:06:52.971Z,100225.69
2023-02-02T15:09:22.691Z,100230.72
2023-02-02T15:12:02.209Z,100231.53
2023-02-02T15:15:08.391Z,100237.41
2023-02-02T15:17:48.914Z,100244.09
2023-02-02T15:20:28.741Z,100258.44
2023-02-02T15:23:31.952Z,100272.75
2023-02-02T15:26:22.480Z,100276.03
2023-02-02T15:29:03.066Z,100286.13
2023-02-02T15:31:43.687Z,100282.72
2023-02-02T15:34:37.736Z,100294.63
2023-02-02T15:37:10.680Z,100297.97
2023-02-02T15:39:45.885Z,100288.59
2023-02-02T15:42:36.561Z,100306.53
2023-02-02T15:45:04.204Z,100315.78
2023-02-02T15:47:35.172Z,100328.50
2023-02-02T15:50:04.478Z,100330.16
2023-02-02T15:52:35.598Z,100335.25
2023-02-02T15:55:03.023Z,100331.78
2023-02-02T15:57:31.939Z,100343.66
2023-02-02T16:00:00.998Z,100350.41
2023-02-02T16:02:45.716Z,100355.50
2023-02-02T16:05:25.201Z,100361.47
2023-02-02T16:08:03.837Z,100377.56
2023-02-02T16:10:32.650Z,100384.16
2023-02-02T16:12:59.737Z,100394.28
2023-02-02T16:15:29.160Z,100408.03
2023-02-02T16:18:04.807Z,100416.47
2023-02-02T16:20:36.085Z,100413.75
2023-02-02T16:23:06.329Z,100435.16
2023-02-02T16:25:35.050Z,100438.47
2023-02-02T16:28:03.518Z,100440.13
2023-02-02T16:30:33.399Z,100446.91
2023-02-02T16:33:27.448Z,100454.41
2023-02-02T16:35:55.004Z,100463.53
2023-02-02T16:38:24.623Z,100480.47
2023-02-02T16:41:10.602Z,100483.00
2023-02-02T16:43:42.750Z,100477.88
2023-02-02T16:46:12.981Z,100480.47
2023-02-02T16:48:46.503Z,100499.16
2023-02-02T16:51:16.593Z,100504.97
2023-02-02T16:54:14.037Z,100509.19
2023-02-02T16:56:45.359Z,100515.06
2023-02-02T16:59:33.654Z,100517.63
2023-02-02T17:02:25.480Z,100527.66
2023-02-02T17:05:03.157Z,100517.13
2023-02-02T17:07:32.375Z,100529.94
2023-02-02T17:10:21.964Z,100545.16
2023-02-02T17:12:49.175Z,100545.91
2023-02-02T17:15:19.057Z,100545.91
2023-02-02T17:17:48.212Z,100552.66
2023-02-02T17:20:19.579Z,100562.75
2023-02-02T17:22:54.673Z,100561.81
2023-02-02T17:25:31.857Z,100571.06
2023-02-02T17:28:00.872Z,100585.59
2023-02-02T17:30:29.679Z,100586.41
2023-02-02T17:32:56.920Z,100591.38
2023-02-02T17:35:27.080Z,100601.81
2023-02-02T17:37:55.159Z,100607.00
2023-02-02T17:40:24.165Z,100601.91
2023-02-02T17:42:53.649Z,100614.84
2023-02-02T17:45:28.563Z,100622.59
2023-02-02T17:47:55.560Z,100624.09
2023-02-02T17:50:23.049Z,100640.53
2023-02-02T17:52:50.523Z,100638.91
2023-02-02T17:55:23.957Z,100648.28
2023-02-02T17:57:52.918Z,100653.38
2023-02-02T18:00:23.292Z,100661.09
2023-02-02T18:02:56.752Z,100663.69
2023-02-02T18:05:24.264Z,100663.56
2023-02-02T18:07:51.723Z,100670.44
2023-02-02T18:10:19.732Z,100672.16
2023-02-02T18:12:46.808Z,100665.22
2023-02-02T18:15:14.907Z,100684.09
2023-02-02T18:17:42.610Z,100681.41
2023-02-02T18:20:13.788Z,100686.31
2023-02-02T18:22:44.369Z,100700.97
2023-02-02T18:25:11.782Z,100711.88
2023-02-02T18:27:39.239Z,100716.00
2023-02-02T18:30:07.403Z,100715.88
2023-02-02T18:32:38.991Z,100726.09
2023-02-02T18:35:07.831Z,100725.97
2023-02-02T18:37:36.669Z,100727.59
2023-02-02T18:40:04.545Z,100733.50
2023-02-02T18:42:33.340Z,100723.81
2023-02-02T18:45:00.840Z,100735.88
2023-02-02T18:47:28.106Z,100732.28
2023-02-02T18:49:55.305Z,100729.53
2023-02-02T18:52:22.545Z,100729.56
2023-02-02T18:54:50.635Z,100740.50
2023-02-02T18:57:18.361Z,100745.63
2023-02-02T18:59:46.222Z,100747.38
2023-02-02T19:02:18.862Z,100728.97
2023-02-02T19:05:16.216Z,100742.75
2023-02-02T19:07:55.600Z,100759.06
2023-02-02T19:10:24.460Z,100763.16
2023-02-02T19:13:10.661Z,100765.78
2023-02-02T19:15:39.571Z,100774.47
2023-02-02T19:18:15.599Z,100776.09
2023-02-02T19:20:43.929Z,100748.09
2023-02-02T19:23:15.326Z,100773.44
2023-02-02T19:25:51.087Z,100767.28
2023-02-02T19:28:24.537Z,100774.25
2023-02-02T19:30:53.814Z,100781.94
2023-02-02T19:33:21.750Z,100787.91
2023-02-02T19:35:52.538Z,100788.81
2023-02-02T19:38:20.813Z,100795.63
2023-02-02T19:40:48.831Z,100805.06
2023-02-02T19:43:25.416Z,100803.44
2023-02-02T19:45:53.663Z,100815.34
2023-02-02T19:48:26.881Z,100818.84
2023-02-02T19:50:59.175Z,100821.38
2023-02-02T19:53:37.765Z,100811.22
2023-02-02T19:56:40.415Z,100812.25
2023-02-02T19:59:15.989Z,100810.72
2023-02-02T20:01:46.079Z,100823.59
2023-02-02T20:04:14.784Z,100823.59
2023-02-02T20:06:56.588Z,100815.00
2023-02-02T20:09:30.071Z,100820.91
2023-02-02T20:11:57.490Z,100812.88
2023-02-02T20:14:33.378Z,100822.31
2023-02-02T20:17:14.297Z,100827.28
2023-02-02T20:19:42.752Z,100845.94
2023-02-02T20:22:30.763Z,100852.63
2023-02-02T20:25:03.833Z,100848.19
2023-02-02T20:27:34.178Z,100860.88
2023-02-02T20:30:19.182Z,100861.63
2023-02-02T20:32:46.860Z,100864.00
2023-02-02T20:35:20.403Z,100851.06
2023-02-02T20:37:47.711Z,100861.25
2023-02-02T20:40:29.540Z,100862.16
2023-02-02T20:42:58.407Z,100866.25
2023-02-02T20:45:26.300Z,100869.63
2023-02-02T20:47:53.517Z,100871.97
2023-02-02T20:50:22.131Z,100877.06
2023-02-02T20:52:51.960Z,100876.13
2023-02-02T20:55:19.227Z,100881.00
2023-02-02T20:57:46.348Z,100897.84
2023-02-02T21:00:16.149Z,100900.19
2023-02-02T21:02:43.277Z,100896.78
2023-02-02T21:05:10.453Z,100896.59
2023-02-02T21:07:37.496Z,100898.19
2023-02-02T21:10:05.334Z,100904.13
2023-02-02T21:12:32.475Z,100906.53
2023-02-02T21:14:59.583Z,100904.66
2023-02-02T21:17:27.578Z,100907.91
2023-02-02T21:19:54.837Z,100908.03
2023-02-02T21:22:21.901Z,100911.38
2023-02-02T21:24:48.982Z,100903.63
2023-02-02T21:27:16.170Z,100905.28
2023-02-02T21:29:43.394Z,100889.31
2023-02-02T21:32:10.911Z,100916.34
2023-02-02T21:34:39.317Z,100917.97
2023-02-02T21:37:14.242Z,100917.56
2023-02-02T21:39:51.917Z,100929.50
2023-02-02T21:42:21.380Z,100932.09
2023-02-02T21:44:56.975Z,100927.91
2023-02-02T21:47:34.714Z,100926.22
2023-02-02T21:50:15.698Z,100921.03
2023-02-02T21:52:43.098Z,100917.56
2023-02-02T21:55:32.861Z,100920.44
2023-02-02T21:58:01.416Z,100917.84
2023-02-02T22:00:32.964Z,100922.81
2023-02-02T22:03:00.436Z,100923.66
2023-02-02T22:05:37.106Z,100925.41
2023-02-02T22:08:21.131Z,100920.09
2023-02-02T22:10:49.240Z,100909.69
2023-02-02T22:13:22.154Z,100917.31
2023-02-02T22:15:53.272Z,100924.00
2023-02-02T22:18:23.359Z,100920.56
2023-02-02T22:20:51.191Z,100920.28
2023-02-02T22:23:26.831Z,100921.91
2023-02-02T22:25:56.894Z,100923.38
2023-02-02T22:28:27.136Z,100926.84
2023-02-02T22:30:55.235Z,100935.03
2023-02-02T22:33:23.186Z,100928.34
2023-02-02T22:35:50.828Z,100939.25
2023-02-02T22:38:20.596Z,100947.81
2023-02-02T22:40:49.032Z,100950.16
2023-02-02T22:43:17.201Z,100950.16
2023-02-02T22:45:45.090Z,100943.19
2023-02-02T22:48:13.708Z,100955.13
2023-02-02T22:50:41.295Z,100950.03
2023-02-02T22:53:08.422Z,100959.28
2023-02-02T22:55:35.664Z,100947.16
2023-02-02T22:58:02.829Z,100960.06
2023-02-02T23:00:33.123Z,100953.25
2023-02-02T23:03:01.051Z,100954.97
2023-02-02T23:05:28.437Z,100951.50
2023-02-02T23:07:55.938Z,100942.13
2023-02-02T23:10:26.216Z,100948.66
2023-02-02T23:12:55.612Z,100937.59
2023-02-02T23:15:23.274Z,100954.56
2023-02-02T23:17:50.655Z,100949.22
2023-02-02T23:20:18.183Z,100953.22
2023-02-02T23:22:45.372Z,100968.63
2023-02-02T23:25:13.774Z,100957.63
2023-02-02T23:27:41.331Z,100954.19
2023-02-02T23:30:10.274Z,100960.03
2023-02-02T23:32:37.507Z,100965.00
2023-02-02T23:35:05.969Z,100964.94
2023-02-02T23:37:33.039Z,100969.13
2023-02-02T23:40:00.061Z,100967.41
2023-02-02T23:42:27.121Z,100958.69
2023-02-02T23:44:54.099Z,100969.13
2023-02-02T23:47:21.168Z,100952.03
2023-02-02T23:49:48.605Z,100959.78
2023-02-02T23:52:15.747Z,100956.97
2023-02-02T23:54:43.686Z,100968.22
2023-02-02T23:57:10.956Z,100966.47
2023-02-02T23:59:38.049Z,100964.50
